createdAt,value
2018-06-17T00:00:17.318Z,8.43
2018-06-17T00:02:46.014Z,7.43
2018-06-17T00:05:14.700Z,8.43
2018-06-17T00:07:43.427Z,8.63
2018-06-17T00:10:12.146Z,10.03
2018-06-17T00:12:40.846Z,11.90
2018-06-17T00:15:09.521Z,10.87
2018-06-17T00:17:38.318Z,9.40
2018-06-17T00:20:07.088Z,8.90
2018-06-17T00:22:42.431Z,10.43
2018-06-17T00:25:11.201Z,11.03
2018-06-17T00:27:40.193Z,11.07
2018-06-17T00:30:08.953Z,12.13
2018-06-17T00:32:37.674Z,12.97
2018-06-17T00:35:06.424Z,13.93
2018-06-17T00:37:35.165Z,13.57
2018-06-17T00:40:03.941Z,13.67
2018-06-17T00:42:32.607Z,13.63
2018-06-17T00:45:01.293Z,12.30
2018-06-17T00:47:30.066Z,10.60
2018-06-17T00:49:58.723Z,10.33
2018-06-17T00:52:27.391Z,10.43
2018-06-17T00:54:56.107Z,9.20
2018-06-17T00:57:35.851Z,10.57
2018-06-17T01:00:05.188Z,10.23
2018-06-17T01:02:33.895Z,9.43
2018-06-17T01:05:02.251Z,9.13
2018-06-17T01:07:30.561Z,8.97
2018-06-17T01:09:59.261Z,8.70
2018-06-17T01:12:27.983Z,10.50
2018-06-17T01:14:56.677Z,8.87
2018-06-17T01:17:25.728Z,10.33
2018-06-17T01:19:54.548Z,11.80
2018-06-17T01:22:23.238Z,9.77
2018-06-17T01:24:51.921Z,9.57
2018-06-17T01:27:20.612Z,8.77
2018-06-17T01:29:49.363Z,11.87
2018-06-17T01:32:18.112Z,9.73
2018-06-17T01:34:46.841Z,12.03
2018-06-17T01:37:15.576Z,12.63
2018-06-17T01:39:44.366Z,14.13
2018-06-17T01:42:13.125Z,14.67
2018-06-17T01:44:41.831Z,12.30
2018-06-17T01:47:10.627Z,11.67
2018-06-17T01:49:39.376Z,11.70
2018-06-17T01:52:08.112Z,10.20
2018-06-17T01:54:36.840Z,13.20
2018-06-17T01:57:05.569Z,13.27
2018-06-17T01:59:34.277Z,10.90
2018-06-17T02:02:03.012Z,11.67
2018-06-17T02:04:36.929Z,10.67
2018-06-17T02:07:10.921Z,11.90
2018-06-17T02:09:44.985Z,11.67
2018-06-17T02:12:17.400Z,11.37
2018-06-17T02:14:51.342Z,12.27
2018-06-17T02:17:21.384Z,11.40
2018-06-17T02:19:50.629Z,11.30
2018-06-17T02:22:19.285Z,10.10
2018-06-17T02:24:48.005Z,10.50
2018-06-17T02:27:16.664Z,9.43
2018-06-17T02:29:45.340Z,10.57
2018-06-17T02:32:14.029Z,10.60
2018-06-17T02:34:42.754Z,10.53
2018-06-17T02:37:11.482Z,11.10
2018-06-17T02:39:40.166Z,9.97
2018-06-17T02:42:09.783Z,10.07
2018-06-17T02:44:38.862Z,9.93
2018-06-17T02:47:12.701Z,10.40
2018-06-17T02:49:43.669Z,11.20
2018-06-17T02:52:17.668Z,11.30
2018-06-17T02:54:47.313Z,10.50
2018-06-17T02:57:19.173Z,9.70
2018-06-17T02:59:48.015Z,11.00
2018-06-17T03:02:16.995Z,11.20
2018-06-17T03:04:45.777Z,12.37
2018-06-17T03:07:14.450Z,14.10
2018-06-17T03:09:43.165Z,13.67
2018-06-17T03:12:11.964Z,14.67
2018-06-17T03:14:40.685Z,16.20
2018-06-17T03:17:09.428Z,13.87
2018-06-17T03:19:38.188Z,15.00
2018-06-17T03:22:07.014Z,15.37
2018-06-17T03:26:46.281Z,15.27
2018-06-17T03:29:19.910Z,11.17
2018-06-17T03:31:53.785Z,12.43
2018-06-17T03:34:22.551Z,12.63
2018-06-17T03:36:51.272Z,11.33
2018-06-17T03:39:20.089Z,15.47
2018-06-17T03:41:48.816Z,15.50
2018-06-17T03:44:17.541Z,17.10
2018-06-17T03:46:46.271Z,17.03
2018-06-17T03:49:14.634Z,16.50
2018-06-17T03:51:43.348Z,16.20
2018-06-17T03:54:12.093Z,15.40
2018-06-17T03:56:40.819Z,16.13
2018-06-17T03:59:09.532Z,16.77
2018-06-17T04:01:38.336Z,16.70
2018-06-17T04:04:07.128Z,16.37
2018-06-17T04:06:36.027Z,15.80
2018-06-17T04:09:06.299Z,15.73
2018-06-17T04:11:35.632Z,15.13
2018-06-17T04:14:04.392Z,15.53
2018-06-17T04:16:33.258Z,15.57
2018-06-17T04:19:02.704Z,14.80
2018-06-17T04:21:31.439Z,15.17
2018-06-17T04:24:00.136Z,15.67
2018-06-17T04:26:28.818Z,16.13
2018-06-17T04:28:57.489Z,17.37
2018-06-17T04:31:25.769Z,16.27
2018-06-17T04:33:54.505Z,16.20
2018-06-17T04:36:23.205Z,16.43
2018-06-17T04:38:51.902Z,15.73
2018-06-17T04:41:20.604Z,16.10
2018-06-17T04:43:49.309Z,17.07
2018-06-17T04:46:18.068Z,15.73
2018-06-17T04:48:46.704Z,15.27
2018-06-17T04:51:15.449Z,15.57
2018-06-17T04:53:44.381Z,13.83
2018-06-17T04:56:13.210Z,13.63
2018-06-17T04:58:42.520Z,12.03
2018-06-17T05:01:11.090Z,14.20
2018-06-17T05:03:39.929Z,12.40
2018-06-17T05:06:08.304Z,11.03
2018-06-17T05:08:36.989Z,11.73
2018-06-17T05:11:06.062Z,11.47
2018-06-17T05:13:34.913Z,11.93
2018-06-17T05:16:03.734Z,11.80
2018-06-17T05:18:32.453Z,10.60
2018-06-17T05:21:01.240Z,10.50
2018-06-17T05:23:29.978Z,9.87
2018-06-17T05:25:58.896Z,9.67
2018-06-17T05:28:28.028Z,9.70
2018-06-17T05:30:57.020Z,9.03
2018-06-17T05:33:25.770Z,9.80
2018-06-17T05:35:55.129Z,8.80
2018-06-17T05:38:24.217Z,10.20
2018-06-17T05:40:52.993Z,9.23
2018-06-17T05:43:21.993Z,9.80
2018-06-17T05:45:50.700Z,8.80
2018-06-17T05:48:19.934Z,7.80
2018-06-17T05:50:49.097Z,7.27
2018-06-17T05:53:17.928Z,7.10
2018-06-17T05:55:46.640Z,7.10
2018-06-17T05:58:15.799Z,7.23
2018-06-17T06:00:44.785Z,6.67
2018-06-17T06:03:13.540Z,6.80
2018-06-17T06:05:42.329Z,6.03
2018-06-17T06:08:11.127Z,5.30
2018-06-17T06:10:39.705Z,6.07
2018-06-17T06:13:08.438Z,6.27
2018-06-17T06:15:37.121Z,4.83
2018-06-17T06:18:06.476Z,4.83
2018-06-17T06:20:35.235Z,5.70
2018-06-17T06:23:04.555Z,5.10
2018-06-17T06:25:33.250Z,5.00
2018-06-17T06:28:01.926Z,5.77
2018-06-17T06:30:30.608Z,5.17
2018-06-17T06:32:59.306Z,5.30
2018-06-17T06:35:28.004Z,5.53
2018-06-17T06:37:56.338Z,5.20
2018-06-17T06:40:25.012Z,5.93
2018-06-17T06:42:53.761Z,5.17
2018-06-17T06:45:22.377Z,5.17
2018-06-17T06:47:51.148Z,4.77
2018-06-17T06:50:19.782Z,4.90
2018-06-17T06:52:48.424Z,4.47
2018-06-17T06:55:17.268Z,4.43
2018-06-17T06:57:45.975Z,4.30
2018-06-17T07:00:14.687Z,4.90
2018-06-17T07:03:52.445Z,4.47
2018-06-17T07:06:32.302Z,4.83
2018-06-17T07:09:12.244Z,4.50
2018-06-17T07:11:40.998Z,4.70
2018-06-17T07:14:09.697Z,4.40
2018-06-17T07:16:49.620Z,5.10
2018-06-17T07:19:18.416Z,4.30
2018-06-17T07:21:47.129Z,4.33
2018-06-17T07:24:15.844Z,4.90
2018-06-17T07:26:57.917Z,4.60
2018-06-17T07:29:32.969Z,4.13
2018-06-17T07:32:01.682Z,3.50
2018-06-17T07:34:30.486Z,4.07
2018-06-17T07:36:59.273Z,3.33
2018-06-17T07:41:34.484Z,3.20
2018-06-17T07:44:03.310Z,2.90
2018-06-17T07:46:31.647Z,2.90
2018-06-17T07:49:38.641Z,3.00
2018-06-17T07:52:19.401Z,3.30
2018-06-17T07:54:48.303Z,2.97
2018-06-17T07:57:18.799Z,2.77
2018-06-17T07:59:50.139Z,3.00
2018-06-17T08:02:21.066Z,2.70
2018-06-17T08:04:50.162Z,3.00
2018-06-17T08:07:19.701Z,2.93
2018-06-17T08:09:48.462Z,3.23
2018-06-17T08:12:17.199Z,2.67
2018-06-17T08:14:46.087Z,2.60
2018-06-17T08:17:14.837Z,2.63
2018-06-17T08:19:43.675Z,2.90
2018-06-17T08:22:12.542Z,2.67
2018-06-17T08:24:41.457Z,2.67
2018-06-17T08:27:10.243Z,2.80
2018-06-17T08:29:38.955Z,2.43
2018-06-17T08:32:08.544Z,2.40
2018-06-17T08:34:38.687Z,2.63
2018-06-17T08:37:13.765Z,2.40
2018-06-17T08:39:42.584Z,2.50
2018-06-17T08:42:11.254Z,2.60
2018-06-17T08:44:40.056Z,2.50
2018-06-17T08:47:08.708Z,2.50
2018-06-17T08:49:38.142Z,3.03
2018-06-17T08:52:06.978Z,2.30
2018-06-17T08:54:36.642Z,2.70
2018-06-17T08:57:05.408Z,2.33
2018-06-17T08:59:34.476Z,2.07
2018-06-17T09:02:04.206Z,1.87
2018-06-17T09:04:32.575Z,2.00
2018-06-17T09:07:01.246Z,2.40
2018-06-17T09:09:30.939Z,2.33
2018-06-17T09:11:59.629Z,2.50
2018-06-17T09:14:28.314Z,2.00
2018-06-17T09:16:57.157Z,2.20
2018-06-17T09:19:25.915Z,2.20
2018-06-17T09:21:54.634Z,2.33
2018-06-17T09:24:23.281Z,1.80
2018-06-17T09:26:51.972Z,2.20
2018-06-17T09:29:20.676Z,2.33
2018-06-17T09:31:49.358Z,2.30
2018-06-17T09:34:18.128Z,2.67
2018-06-17T09:36:46.885Z,2.57
2018-06-17T09:39:15.632Z,2.50
2018-06-17T09:41:44.262Z,2.73
2018-06-17T09:44:13.525Z,2.63
2018-06-17T09:46:42.225Z,2.70
2018-06-17T09:49:10.993Z,2.30
2018-06-17T09:51:39.732Z,2.60
2018-06-17T09:54:08.585Z,2.80
2018-06-17T09:56:37.314Z,2.50
2018-06-17T09:59:06.032Z,2.30
2018-06-17T10:01:34.877Z,2.20
2018-06-17T10:04:03.684Z,2.10
2018-06-17T10:06:32.573Z,2.30
2018-06-17T10:09:01.253Z,2.37
2018-06-17T10:11:29.904Z,2.23
2018-06-17T10:13:58.657Z,2.53
2018-06-17T10:16:27.529Z,2.50
2018-06-17T10:18:56.447Z,2.50
2018-06-17T10:21:25.125Z,3.00
2018-06-17T10:23:53.793Z,2.67
2018-06-17T10:26:22.467Z,2.67
2018-06-17T10:28:51.301Z,3.13
2018-06-17T10:31:20.052Z,2.60
2018-06-17T10:33:48.800Z,2.40
2018-06-17T10:36:17.640Z,2.90
2018-06-17T10:38:46.445Z,2.37
2018-06-17T10:41:16.211Z,2.70
2018-06-17T10:43:45.089Z,2.23
2018-06-17T10:46:14.112Z,3.13
2018-06-17T10:48:43.088Z,2.50
2018-06-17T10:51:12.652Z,2.73
2018-06-17T10:53:41.328Z,2.80
2018-06-17T10:56:09.690Z,2.60
2018-06-17T10:58:38.503Z,2.60
2018-06-17T11:01:07.660Z,3.20
2018-06-17T11:03:36.423Z,2.60
2018-06-17T11:06:05.159Z,2.30
2018-06-17T11:08:33.885Z,2.70
2018-06-17T11:11:02.603Z,2.97
2018-06-17T11:13:31.322Z,2.63
2018-06-17T11:16:00.107Z,2.30
2018-06-17T11:18:28.858Z,2.67
2018-06-17T11:20:57.583Z,2.37
2018-06-17T11:23:26.309Z,2.90
2018-06-17T11:25:55.187Z,2.50
2018-06-17T11:28:24.815Z,2.50
2018-06-17T11:30:53.122Z,2.47
2018-06-17T11:33:21.878Z,2.60
2018-06-17T11:35:51.212Z,2.70
2018-06-17T11:38:20.064Z,2.53
2018-06-17T11:40:48.808Z,2.83
2018-06-17T11:43:18.121Z,2.60
2018-06-17T11:45:46.863Z,2.40
2018-06-17T11:48:15.737Z,2.80
2018-06-17T11:50:44.569Z,2.40
2018-06-17T11:53:13.268Z,2.43
2018-06-17T11:55:42.026Z,2.90
2018-06-17T11:58:10.975Z,3.43
2018-06-17T12:00:39.714Z,2.80
2018-06-17T12:03:08.509Z,2.77
2018-06-17T12:05:37.172Z,2.67
2018-06-17T12:08:05.610Z,2.70
2018-06-17T12:10:34.367Z,2.93
2018-06-17T12:13:03.920Z,2.80
2018-06-17T12:15:32.696Z,3.10
2018-06-17T12:18:01.509Z,3.60
2018-06-17T12:20:30.293Z,3.10
2018-06-17T12:22:58.784Z,3.30
2018-06-17T12:25:27.216Z,3.13
2018-06-17T12:27:56.257Z,3.07
2018-06-17T12:30:24.952Z,2.97
2018-06-17T12:32:53.953Z,2.83
2018-06-17T12:35:22.651Z,2.77
2018-06-17T12:37:51.693Z,3.37
2018-06-17T12:40:21.219Z,3.17
2018-06-17T12:42:49.997Z,2.40
2018-06-17T12:45:18.865Z,2.70
2018-06-17T12:47:47.719Z,3.13
2018-06-17T12:50:16.416Z,3.53
2018-06-17T12:52:45.137Z,3.30
2018-06-17T12:55:14.057Z,2.97
2018-06-17T12:57:44.048Z,3.07
2018-06-17T13:00:13.155Z,2.83
2018-06-17T13:02:41.809Z,2.70
2018-06-17T13:05:10.714Z,3.17
2018-06-17T13:07:39.420Z,2.40
2018-06-17T13:10:08.172Z,3.00
2018-06-17T13:12:36.966Z,2.70
2018-06-17T13:15:05.949Z,3.13
2018-06-17T13:17:34.682Z,2.87
2018-06-17T13:20:03.458Z,2.67
2018-06-17T13:22:32.178Z,3.10
2018-06-17T13:25:00.574Z,2.80
2018-06-17T13:27:29.325Z,2.70
2018-06-17T13:29:58.098Z,2.90
2018-06-17T13:32:26.901Z,3.23
2018-06-17T13:34:55.991Z,2.93
2018-06-17T13:37:24.692Z,3.03
2018-06-17T13:39:53.093Z,2.70
2018-06-17T13:42:22.339Z,2.90
2018-06-17T13:44:51.009Z,2.42
2018-06-17T13:47:20.049Z,3.40
2018-06-17T13:49:48.900Z,2.70
2018-06-17T13:52:17.621Z,2.90
2018-06-17T13:54:46.440Z,2.70
2018-06-17T13:57:15.208Z,2.67
2018-06-17T13:59:45.583Z,2.33
2018-06-17T14:02:14.447Z,2.50
2018-06-17T14:04:43.836Z,2.40
2018-06-17T14:07:12.572Z,2.30
2018-06-17T14:09:41.340Z,2.20
2018-06-17T14:12:10.042Z,2.40
2018-06-17T14:14:39.745Z,2.27
2018-06-17T14:17:09.749Z,2.58
2018-06-17T14:19:38.542Z,2.27
2018-06-17T14:22:07.930Z,2.63
2018-06-17T14:24:36.266Z,2.02
2018-06-17T14:27:04.984Z,2.85
2018-06-17T14:29:41.948Z,3.27
2018-06-17T14:32:10.815Z,3.03
2018-06-17T14:34:39.501Z,3.07
2018-06-17T14:37:09.602Z,2.33
2018-06-17T14:39:38.228Z,2.70
2018-06-17T14:42:12.237Z,2.57
2018-06-17T14:44:47.003Z,2.97
2018-06-17T14:47:20.909Z,2.90
2018-06-17T14:49:54.625Z,2.70
2018-06-17T14:52:26.740Z,3.00
2018-06-17T14:54:57.383Z,2.83
2018-06-17T14:57:26.806Z,3.10
2018-06-17T15:00:07.259Z,3.17
2018-06-17T15:02:35.976Z,2.97
2018-06-17T15:05:04.779Z,2.77
2018-06-17T15:07:33.552Z,2.90
2018-06-17T15:10:02.283Z,2.90
2018-06-17T15:12:30.968Z,3.05
2018-06-17T15:15:00.717Z,3.08
2018-06-17T15:17:29.361Z,2.77
2018-06-17T15:19:58.397Z,3.00
2018-06-17T15:22:27.226Z,3.00
2018-06-17T15:24:56.015Z,2.80
2018-06-17T15:27:24.857Z,2.63
2018-06-17T15:29:53.616Z,2.90
2018-06-17T15:32:27.574Z,2.72
2018-06-17T15:35:01.564Z,2.90
2018-06-17T15:37:35.566Z,2.45
2018-06-17T15:40:04.428Z,3.12
2018-06-17T15:42:33.121Z,3.05
2018-06-17T15:45:01.874Z,3.12
2018-06-17T15:47:30.627Z,2.60
2018-06-17T15:49:59.312Z,2.90
2018-06-17T15:52:28.105Z,3.00
2018-06-17T15:54:56.833Z,2.93
2018-06-17T15:57:26.038Z,2.87
2018-06-17T15:59:55.154Z,2.83
2018-06-17T16:02:23.972Z,3.00
2018-06-17T16:04:52.756Z,3.17
2018-06-17T16:07:21.501Z,3.10
2018-06-17T16:09:53.181Z,2.90
2018-06-17T16:12:27.064Z,3.03
2018-06-17T16:15:00.899Z,2.97
2018-06-17T16:17:34.633Z,3.40
2018-06-17T16:20:08.731Z,4.13
2018-06-17T16:22:37.525Z,3.80
2018-06-17T16:25:06.534Z,3.40
2018-06-17T16:27:35.248Z,3.40
2018-06-17T16:30:04.014Z,2.87
2018-06-17T16:32:32.764Z,2.77
2018-06-17T16:35:02.389Z,3.10
2018-06-17T16:37:31.312Z,3.00
2018-06-17T16:40:00.084Z,3.08
2018-06-17T16:42:28.968Z,3.10
2018-06-17T16:44:57.739Z,3.42
2018-06-17T16:47:26.485Z,3.27
2018-06-17T16:49:55.290Z,3.10
2018-06-17T16:52:29.367Z,3.60
2018-06-17T16:55:02.242Z,3.13
2018-06-17T16:57:36.321Z,2.83
2018-06-17T17:00:13.939Z,3.53
2018-06-17T17:02:42.964Z,3.10
2018-06-17T17:05:11.931Z,3.40
2018-06-17T17:07:40.908Z,3.17
2018-06-17T17:10:09.282Z,3.63
2018-06-17T17:12:37.886Z,3.37
2018-06-17T17:15:08.752Z,3.50
2018-06-17T17:17:38.365Z,3.20
2018-06-17T17:20:07.170Z,3.30
2018-06-17T17:22:36.011Z,2.87
2018-06-17T17:25:04.561Z,3.37
2018-06-17T17:27:33.453Z,3.17
2018-06-17T17:30:02.959Z,3.87
2018-06-17T17:32:37.066Z,3.90
2018-06-17T17:35:11.003Z,3.50
2018-06-17T17:37:44.789Z,3.50
2018-06-17T17:40:18.717Z,4.00
2018-06-17T17:42:47.645Z,4.07
2018-06-17T17:45:17.830Z,4.20
2018-06-17T17:47:48.427Z,3.60
2018-06-17T17:50:17.142Z,4.17
2018-06-17T17:52:46.182Z,3.90
2018-06-17T17:55:14.932Z,4.37
2018-06-17T17:57:43.705Z,3.87
2018-06-17T18:00:12.459Z,4.17
2018-06-17T18:02:41.262Z,4.00
2018-06-17T18:05:09.979Z,4.63
2018-06-17T18:07:38.678Z,4.40
2018-06-17T18:10:07.410Z,4.10
2018-06-17T18:12:36.146Z,3.93
2018-06-17T18:15:05.141Z,4.90
2018-06-17T18:17:33.818Z,4.87
2018-06-17T18:20:02.510Z,4.23
2018-06-17T18:22:31.218Z,4.10
2018-06-17T18:25:05.148Z,4.30
2018-06-17T18:27:39.008Z,4.30
2018-06-17T18:30:12.879Z,3.93
2018-06-17T18:32:46.630Z,4.57
2018-06-17T18:35:20.568Z,4.73
2018-06-17T18:37:49.250Z,4.97
2018-06-17T18:40:17.964Z,4.53
2018-06-17T18:42:46.769Z,4.80
2018-06-17T18:45:15.471Z,4.53
2018-06-17T18:47:44.221Z,4.80
2018-06-17T18:50:12.941Z,5.10
2018-06-17T18:52:41.658Z,4.80
2018-06-17T18:55:10.017Z,4.73
2018-06-17T18:57:38.745Z,4.50
2018-06-17T19:00:08.949Z,4.83
2018-06-17T19:02:37.957Z,4.63
2018-06-17T19:05:06.707Z,4.53
2018-06-17T19:07:35.443Z,5.20
2018-06-17T19:10:08.976Z,4.77
2018-06-17T19:12:42.985Z,4.73
2018-06-17T19:15:16.885Z,4.33
2018-06-17T19:17:50.648Z,4.90
2018-06-17T19:20:19.535Z,4.80
2018-06-17T19:22:48.270Z,4.47
2018-06-17T19:25:17.062Z,4.27
2018-06-17T19:27:45.777Z,4.50
2018-06-17T19:30:14.503Z,4.40
2018-06-17T19:32:43.345Z,4.70
2018-06-17T19:35:12.200Z,4.80
2018-06-17T19:37:40.943Z,4.80
2018-06-17T19:40:09.612Z,5.13
2018-06-17T19:42:38.451Z,4.80
2018-06-17T19:45:07.196Z,4.90
2018-06-17T19:47:35.953Z,5.00
2018-06-17T19:50:10.167Z,5.27
2018-06-17T19:52:43.820Z,4.83
2018-06-17T19:55:17.853Z,4.90
2018-06-17T19:57:51.809Z,4.60
2018-06-17T20:00:25.754Z,4.70
2018-06-17T20:02:54.503Z,4.87
2018-06-17T20:05:23.243Z,4.40
2018-06-17T20:07:52.066Z,4.87
2018-06-17T20:10:20.848Z,4.75
2018-06-17T20:12:49.207Z,4.67
2018-06-17T20:15:17.870Z,5.00
2018-06-17T20:17:46.757Z,4.90
2018-06-17T20:20:15.493Z,4.70
2018-06-17T20:22:44.380Z,4.90
2018-06-17T20:25:13.110Z,4.97
2018-06-17T20:27:41.907Z,5.57
2018-06-17T20:30:10.664Z,5.07
2018-06-17T20:32:44.473Z,5.00
2018-06-17T20:35:18.205Z,5.67
2018-06-17T20:37:52.280Z,5.23
2018-06-17T20:40:26.271Z,5.30
2018-06-17T20:43:00.203Z,4.83
2018-06-17T20:45:28.960Z,5.13
2018-06-17T20:47:57.855Z,4.90
2018-06-17T20:50:26.576Z,5.13
2018-06-17T20:52:55.245Z,4.53
2018-06-17T20:55:23.922Z,5.07
2018-06-17T20:57:52.650Z,6.40
2018-06-17T21:00:21.369Z,5.40
2018-06-17T21:02:49.756Z,5.70
2018-06-17T21:05:18.499Z,5.67
2018-06-17T21:07:52.005Z,5.70
2018-06-17T21:10:20.738Z,5.10
2018-06-17T21:12:49.472Z,5.70
2018-06-17T21:15:19.408Z,5.13
2018-06-17T21:17:50.479Z,6.37
2018-06-17T21:20:24.357Z,5.30
2018-06-17T21:22:58.357Z,4.83
2018-06-17T21:25:32.254Z,4.90
2018-06-17T21:28:02.045Z,4.97
2018-06-17T21:30:30.732Z,5.30
2018-06-17T21:32:59.441Z,5.60
2018-06-17T21:35:28.147Z,5.40
2018-06-17T21:37:56.985Z,4.83
2018-06-17T21:40:25.709Z,5.37
2018-06-17T21:42:54.436Z,4.80
2018-06-17T21:45:25.209Z,4.87
2018-06-17T21:47:53.891Z,4.53
2018-06-17T21:50:22.672Z,5.00
2018-06-17T21:52:51.573Z,4.90
2018-06-17T21:55:20.259Z,5.20
2018-06-17T21:57:48.973Z,4.67
2018-06-17T22:00:17.750Z,4.70
2018-06-17T22:02:46.465Z,4.20
2018-06-17T22:05:15.189Z,5.20
2018-06-17T22:07:49.263Z,4.40
2018-06-17T22:10:23.227Z,5.10
2018-06-17T22:12:57.097Z,4.63
2018-06-17T22:15:31.136Z,4.97
2018-06-17T22:17:59.904Z,5.07
2018-06-17T22:20:28.685Z,4.77
2018-06-17T22:22:57.391Z,4.93
2018-06-17T22:25:26.141Z,5.17
2018-06-17T22:27:54.862Z,5.50
2018-06-17T22:30:23.903Z,6.30
2018-06-17T22:32:52.609Z,5.57
2018-06-17T22:35:21.282Z,6.80
2018-06-17T22:37:49.620Z,6.57
2018-06-17T22:40:18.316Z,7.53
2018-06-17T22:42:47.032Z,8.10
2018-06-17T22:45:15.713Z,7.97
2018-06-17T22:47:49.655Z,7.43
2018-06-17T22:50:18.370Z,8.47
2018-06-17T22:52:58.056Z,8.50
2018-06-17T22:55:26.374Z,8.03
2018-06-17T23:00:04.944Z,8.67
2018-06-17T23:02:38.897Z,9.77
2018-06-17T23:05:12.864Z,9.83
2018-06-17T23:07:46.762Z,9.57
2018-06-17T23:10:15.583Z,8.57
2018-06-17T23:12:44.276Z,8.90
2018-06-17T23:15:12.992Z,9.13
2018-06-17T23:17:41.697Z,8.67
2018-06-17T23:20:10.395Z,9.53
2018-06-17T23:22:39.087Z,8.80
2018-06-17T23:25:07.819Z,8.30
2018-06-17T23:27:36.144Z,8.67
2018-06-17T23:30:05.075Z,9.17
2018-06-17T23:32:33.788Z,10.10
2018-06-17T23:35:02.503Z,8.97
2018-06-17T23:37:31.179Z,9.10
2018-06-17T23:39:59.929Z,8.97
2018-06-17T23:42:28.641Z,9.00
2018-06-17T23:44:57.404Z,9.37
2018-06-17T23:47:31.440Z,9.13
2018-06-17T23:50:05.411Z,9.63
2018-06-17T23:52:39.257Z,9.37
2018-06-17T23:55:13.150Z,9.50
2018-06-17T23:57:41.908Z,9.90
